Hauptseite
METAR-TAF:

METAR-TAF

Flughäfen :

Nürnberg, Deutschland

Flughafen Nürnberg

Breite: 49-30N, Länge: 011-03E, Höhe: 318 m

Beobachtung

Neuester Wetterbericht von vor 8 Minuten, um 11:50 UTC
Wind 5 kt aus unterschiedlichen Richtungen
Temperatur 18°C
Luftfeuchtigkeit 52%
Luftdruck 1024 hPa
Sichtweite 10 km oder mehr
keine Wolken unter 1500 m und keine Kumulonimbus oder Gewitterwolken

METAR: EDDN 211150Z VRB05KT CAVOK 18/08 Q1024 NOSIG

Zeit: 13:58 (11:58 UTC)

Prognose

Neuester Wetterbericht von vor 58 Minuten, um 11:00 UTC
Gültige Prognose vom 21 um 12 UTC bis 22 um 12 UTC
Wind 5 kt aus West/Nordwest
Sichtweite 10 km oder mehr
Leicht bewölkt in der Höhe von 4500 ft
Übergehend zu
vom 21 um 18 UTC bis 21 um 21 UTC
Wind 4 kt aus Ost
Übergehend zu
vom 22 um 09 UTC bis 22 um 11 UTC
Wind 5 kt aus West/Nordwest

TAF: EDDN 211100Z 2112/2212 30005KT 9999 FEW045 BECMG 2118/2121 10004KT BECMG 2209/2211 30005KT

Wetterbeobachtungen und Prognosen von mehr als 4000 Flughäfen (METAR und TAF Bericht).

Die verfügbaren Stationen werden durch gelbe und rote Markierungen auf der Karte dargestellt.

Führen Sie die Maus auf sie, um den Namen der Station zu sehen.

Darauf klicken, um die Beobachtung von Wetterbeobachtungen und Prognosen zu sehen.

Um die Karte zu ändern : klicken Sie auf den grünen Tasten mit einem schwarzen Kreuz Zum Vergrößern, auf den grünen Button mit einem Gedankenstrich zu verkleinern, oder auf die grünen Pfeile für benachbarte Karten.


METAR-TAF: